createdAt,value
2023-02-09T00:01:44.745Z,5.28
2023-02-09T00:06:46.475Z,5.45
2023-02-09T00:11:48.619Z,6.72
2023-02-09T00:16:52.035Z,5.18
2023-02-09T00:21:54.034Z,6.50
2023-02-09T00:26:55.592Z,5.82
2023-02-09T00:31:57.174Z,5.70
2023-02-09T00:36:58.683Z,7.13
2023-02-09T00:42:00.280Z,6.60
2023-02-09T00:47:03.698Z,6.60
2023-02-09T00:52:05.421Z,6.75
2023-02-09T00:57:06.947Z,5.85
2023-02-09T01:02:08.746Z,5.22
2023-02-09T01:07:10.324Z,6.22
2023-02-09T01:12:11.844Z,5.80
2023-02-09T01:17:13.376Z,5.82
2023-02-09T01:22:16.438Z,7.10
2023-02-09T01:27:20.760Z,5.07
2023-02-09T01:32:22.279Z,7.00
2023-02-09T01:37:23.842Z,5.88
2023-02-09T01:42:25.452Z,5.68
2023-02-09T01:47:27.055Z,5.20
2023-02-09T01:52:29.362Z,5.78
2023-02-09T01:57:37.244Z,6.28
2023-02-09T02:02:39.695Z,4.90
2023-02-09T02:07:46.785Z,6.57
2023-02-09T02:12:48.689Z,5.97
2023-02-09T02:18:28.097Z,6.65
2023-02-09T02:23:45.308Z,6.55
2023-02-09T02:29:14.821Z,6.65
2023-02-09T02:34:37.469Z,7.15
2023-02-09T02:39:49.457Z,6.47
2023-02-09T02:45:08.832Z,7.97
2023-02-09T02:50:23.849Z,7.13
2023-02-09T02:55:30.275Z,7.22
2023-02-09T03:00:36.589Z,7.43
2023-02-09T03:05:38.722Z,7.13
2023-02-09T03:10:42.118Z,6.72
2023-02-09T03:22:28.931Z,6.22
2023-02-09T03:27:41.532Z,8.00
2023-02-09T03:32:45.487Z,7.15
2023-02-09T03:37:47.190Z,7.15
2023-02-09T03:42:49.471Z,6.95
2023-02-09T03:47:51.116Z,6.28
2023-02-09T03:52:52.657Z,7.50
2023-02-09T03:57:54.231Z,8.13
2023-02-09T04:02:55.744Z,7.88
2023-02-09T04:07:57.234Z,8.27
2023-02-09T04:12:58.731Z,7.68
2023-02-09T04:18:00.359Z,7.43
2023-02-09T04:23:01.899Z,8.40
2023-02-09T04:28:04.370Z,8.75
2023-02-09T04:33:06.096Z,9.23
2023-02-09T04:38:07.588Z,9.10
2023-02-09T04:43:09.164Z,8.50
2023-02-09T04:48:13.625Z,9.07
2023-02-09T04:53:15.528Z,8.60
2023-02-09T04:58:19.850Z,8.68
2023-02-09T05:03:23.669Z,9.10
2023-02-09T05:08:26.337Z,9.52
2023-02-09T05:13:28.476Z,8.88
2023-02-09T05:18:32.672Z,7.88
2023-02-09T05:23:34.439Z,8.85
2023-02-09T05:28:36.377Z,9.88
2023-02-09T05:33:37.874Z,10.00
2023-02-09T05:38:39.757Z,9.40
2023-02-09T05:43:41.281Z,11.10
2023-02-09T05:48:42.902Z,10.13
2023-02-09T05:53:44.448Z,9.48
2023-02-09T05:58:45.923Z,8.73
2023-02-09T06:03:47.505Z,9.52
2023-02-09T06:08:49.092Z,9.88
2023-02-09T06:13:50.604Z,9.60
2023-02-09T06:18:52.223Z,11.50
2023-02-09T06:23:53.836Z,10.82
2023-02-09T06:28:55.657Z,8.52
2023-02-09T06:33:57.278Z,9.10
2023-02-09T06:38:58.898Z,10.82
2023-02-09T06:44:00.534Z,9.48
2023-02-09T06:49:02.474Z,10.35
2023-02-09T06:54:04.431Z,9.60
2023-02-09T06:59:06.016Z,10.10
2023-02-09T07:04:07.546Z,10.70
2023-02-09T07:09:09.253Z,9.13
2023-02-09T07:14:10.908Z,10.60
2023-02-09T07:19:12.991Z,11.20
2023-02-09T07:24:14.577Z,12.18
2023-02-09T07:29:16.734Z,11.23
2023-02-09T07:34:18.253Z,10.40
2023-02-09T07:39:19.923Z,11.18
2023-02-09T07:44:21.556Z,11.15
2023-02-09T07:49:23.147Z,11.55
2023-02-09T07:54:24.753Z,13.00
2023-02-09T07:59:26.330Z,10.40
2023-02-09T08:04:27.961Z,10.05
2023-02-09T08:09:29.607Z,10.68
2023-02-09T08:14:37.693Z,11.07
2023-02-09T08:19:39.619Z,10.88
2023-02-09T08:24:41.406Z,10.45
2023-02-09T08:29:43.191Z,10.05
2023-02-09T08:34:44.755Z,10.75
2023-02-09T08:39:46.276Z,11.10
2023-02-09T08:44:48.051Z,10.05
2023-02-09T08:49:50.205Z,11.40
2023-02-09T08:54:51.783Z,11.57
2023-02-09T08:59:53.404Z,10.77
2023-02-09T09:04:54.912Z,10.80
2023-02-09T09:09:56.483Z,10.18
2023-02-09T09:14:57.995Z,10.05
2023-02-09T09:19:59.728Z,9.93
2023-02-09T09:25:01.366Z,10.43
2023-02-09T09:30:04.589Z,10.73
2023-02-09T09:35:06.444Z,11.02
2023-02-09T09:40:17.301Z,10.45
2023-02-09T09:45:24.270Z,11.40
2023-02-09T09:50:31.638Z,12.15
2023-02-09T09:55:34.457Z,10.65
2023-02-09T10:00:42.291Z,10.23
2023-02-09T10:05:45.534Z,12.43
2023-02-09T10:10:51.435Z,10.63
2023-02-09T10:15:55.483Z,10.57
2023-02-09T10:21:04.686Z,10.98
2023-02-09T10:26:09.216Z,12.18
2023-02-09T10:31:32.183Z,10.77
2023-02-09T10:36:37.107Z,9.93
2023-02-09T10:41:41.588Z,11.30
2023-02-09T10:46:43.412Z,9.55
2023-02-09T10:51:44.960Z,10.18
2023-02-09T10:56:48.877Z,9.07
2023-02-09T11:02:03.157Z,9.48
2023-02-09T11:07:14.795Z,10.68
2023-02-09T11:12:16.444Z,10.48
2023-02-09T11:17:46.174Z,10.55
2023-02-09T11:23:15.478Z,9.27
2023-02-09T11:28:54.284Z,10.00
2023-02-09T11:34:15.666Z,9.27
2023-02-09T11:39:26.718Z,9.55
2023-02-09T11:44:46.371Z,8.50
2023-02-09T11:49:50.563Z,9.65
2023-02-09T11:54:57.609Z,11.10
2023-02-09T12:00:05.753Z,8.93
2023-02-09T12:05:13.392Z,10.63
2023-02-09T12:10:42.871Z,9.35
2023-02-09T12:15:49.563Z,9.98
2023-02-09T12:20:54.052Z,9.23
2023-02-09T12:26:00.920Z,7.80
2023-02-09T12:31:04.897Z,8.13
2023-02-09T12:36:09.734Z,8.18
2023-02-09T12:41:11.419Z,7.40
2023-02-09T12:46:45.224Z,6.78
2023-02-09T12:51:49.957Z,7.38
2023-02-09T12:56:51.600Z,8.48
2023-02-09T13:02:08.286Z,8.27
2023-02-09T13:07:29.913Z,7.30
2023-02-09T13:12:42.325Z,7.18
2023-02-09T13:18:06.749Z,8.05
2023-02-09T13:23:14.055Z,6.40
2023-02-09T13:28:18.445Z,5.78
2023-02-09T13:33:49.057Z,6.95
2023-02-09T13:38:50.825Z,7.45
2023-02-09T13:43:52.803Z,8.15
2023-02-09T13:48:54.929Z,8.10
2023-02-09T13:53:59.513Z,7.40
2023-02-09T13:59:01.385Z,7.93
2023-02-09T14:04:35.430Z,7.30
2023-02-09T14:10:01.979Z,6.47
2023-02-09T14:15:03.923Z,7.63
2023-02-09T14:20:19.842Z,6.88
2023-02-09T14:25:31.531Z,7.50
2023-02-09T14:30:36.244Z,6.65
2023-02-09T14:35:45.060Z,7.05
2023-02-09T14:40:46.878Z,7.40
2023-02-09T14:45:58.676Z,6.88
2023-02-09T14:51:10.321Z,7.75
2023-02-09T14:56:30.640Z,7.13
2023-02-09T15:01:32.359Z,6.60
2023-02-09T15:06:35.467Z,6.85
2023-02-09T15:11:42.195Z,6.05
2023-02-09T15:16:44.201Z,6.05
2023-02-09T15:21:52.591Z,5.97
2023-02-09T15:27:01.307Z,7.03
2023-02-09T15:32:03.068Z,7.10
2023-02-09T15:37:04.737Z,6.70
2023-02-09T15:42:14.728Z,6.57
2023-02-09T15:47:16.234Z,6.65
2023-02-09T15:52:18.617Z,8.25
2023-02-09T15:57:20.308Z,7.32
2023-02-09T16:02:21.894Z,6.85
2023-02-09T16:07:26.119Z,10.63
2023-02-09T16:12:27.730Z,7.95
2023-02-09T16:17:29.360Z,8.27
2023-02-09T16:22:30.915Z,8.85
2023-02-09T16:27:32.574Z,8.68
2023-02-09T16:32:34.175Z,10.57
2023-02-09T16:37:36.061Z,9.00
2023-02-09T16:42:37.634Z,7.30
2023-02-09T16:47:40.932Z,6.57
2023-02-09T16:52:43.446Z,7.90
2023-02-09T16:57:44.983Z,11.50
2023-02-09T17:02:57.755Z,27.05
2023-02-09T17:08:13.664Z,12.70
2023-02-09T17:13:15.767Z,10.30
2023-02-09T17:18:24.115Z,10.23
2023-02-09T17:23:28.385Z,9.32
2023-02-09T17:28:30.117Z,8.70
2023-02-09T17:33:34.251Z,9.70
2023-02-09T17:38:37.242Z,10.07
2023-02-09T17:43:38.798Z,10.95
2023-02-09T17:48:40.425Z,10.65
2023-02-09T17:53:41.956Z,11.85
2023-02-09T17:58:43.582Z,11.82
2023-02-09T18:03:45.125Z,8.75
2023-02-09T18:08:46.648Z,7.28
2023-02-09T18:13:48.179Z,10.60
2023-02-09T18:18:49.792Z,10.85
2023-02-09T18:23:51.417Z,11.48
2023-02-09T18:28:53.061Z,11.65
2023-02-09T18:33:54.896Z,16.38
2023-02-09T18:38:56.463Z,13.32
2023-02-09T18:43:58.166Z,9.15
2023-02-09T18:49:01.858Z,9.50
2023-02-09T18:54:04.799Z,8.63
2023-02-09T18:59:06.334Z,8.68
2023-02-09T19:04:07.917Z,9.50
2023-02-09T19:09:09.457Z,11.82
2023-02-09T19:14:11.035Z,13.98
2023-02-09T19:19:12.796Z,12.90
2023-02-09T19:24:14.431Z,10.75
2023-02-09T19:29:16.691Z,11.25
2023-02-09T19:34:18.746Z,11.35
2023-02-09T19:39:20.261Z,11.93
2023-02-09T19:44:21.774Z,12.38
2023-02-09T19:49:23.576Z,11.60
2023-02-09T19:54:25.089Z,11.10
2023-02-09T19:59:26.574Z,10.77
2023-02-09T20:04:28.160Z,9.20
2023-02-09T20:09:29.853Z,11.85
2023-02-09T20:14:33.481Z,12.38
2023-02-09T20:19:36.078Z,13.68
2023-02-09T20:24:37.714Z,13.65
2023-02-09T20:29:39.246Z,14.60
2023-02-09T20:34:40.826Z,13.95
2023-02-09T20:39:42.384Z,13.20
2023-02-09T20:44:44.278Z,14.10
2023-02-09T20:49:45.819Z,14.50
2023-02-09T20:54:47.405Z,13.32
2023-02-09T20:59:48.909Z,13.07
2023-02-09T21:04:50.829Z,13.38
2023-02-09T21:09:52.929Z,13.95
2023-02-09T21:14:54.550Z,14.07
2023-02-09T21:19:56.552Z,13.68
2023-02-09T21:24:58.056Z,14.00
2023-02-09T21:30:00.012Z,14.10
2023-02-09T21:35:03.598Z,14.13
2023-02-09T21:40:06.650Z,16.65
2023-02-09T21:45:09.302Z,16.60
2023-02-09T21:50:12.961Z,15.45
2023-02-09T21:55:14.738Z,15.98
2023-02-09T22:00:16.651Z,15.75
2023-02-09T22:05:18.505Z,17.45
2023-02-09T22:10:20.142Z,17.58
2023-02-09T22:15:21.670Z,15.75
2023-02-09T22:20:23.319Z,18.00
2023-02-09T22:25:24.954Z,17.65
2023-02-09T22:30:26.526Z,18.63
2023-02-09T22:35:28.741Z,19.90
2023-02-09T22:40:30.329Z,17.98
2023-02-09T22:45:32.363Z,20.27
2023-02-09T22:50:34.971Z,19.00
2023-02-09T22:55:36.521Z,18.38
2023-02-09T23:00:38.041Z,19.15
2023-02-09T23:05:39.562Z,18.65
2023-02-09T23:10:41.094Z,18.15
2023-02-09T23:15:42.659Z,19.23
2023-02-09T23:20:44.175Z,19.42
2023-02-09T23:25:45.862Z,19.92
2023-02-09T23:30:48.045Z,18.85
2023-02-09T23:35:49.950Z,19.02
2023-02-09T23:40:51.602Z,21.02
2023-02-09T23:45:53.555Z,19.48
2023-02-09T23:51:04.048Z,18.67
2023-02-09T23:56:05.845Z,16.33
